Time;durP1;ratioP1;P1;durP2;ratioP2;P2;SDS_P1;SDS_P2;PMS_P1;PMS_P2;Temp;Humidity;BMP_temperature;BMP_pressure;BME280_temperature;BME280_humidity;BME280_pressure;Samples;Min_cycle;Max_cycle;Signal;HPM_P1;HPM_P2
2023/09/27 00:00:14;;;;;;;33.85;24.27;;;;;;;;;;1042963;28;20701;-67
2023/09/27 00:01:04;;;;;;;36.58;22.27;;;;;;;;;;1041137;28;20099;-67
2023/09/27 00:01:38;;;;;;;30.58;21.60;;;;;;;;;;1046491;28;20055;-68
2023/09/27 00:02:08;;;;;;;31.13;23.38;;;;;;;;;;1046026;28;20103;-68
2023/09/27 00:02:40;;;;;;;39.67;25.33;;;;;;;;;;1044167;28;20056;-68
2023/09/27 00:03:11;;;;;;;36.83;25.55;;;;;;;;;;1044670;28;20489;-67
2023/09/27 00:03:42;;;;;;;38.55;26.45;;;;;;;;;;1044239;28;20792;-68
2023/09/27 00:04:13;;;;;;;36.33;24.25;;;;;;;;;;1045710;28;20044;-68
2023/09/27 00:04:43;;;;;;;32.72;23.75;;;;;;;;;;1044902;28;20056;-68
2023/09/27 00:05:14;;;;;;;31.98;21.95;;;;;;;;;;1046178;28;20074;-67
2023/09/27 00:05:45;;;;;;;31.50;22.42;;;;;;;;;;1046647;28;20106;-68
2023/09/27 00:06:16;;;;;;;32.67;22.60;;;;;;;;;;1045502;28;20048;-68
2023/09/27 00:06:47;;;;;;;31.75;21.50;;;;;;;;;;1045066;28;20048;-68
2023/09/27 00:07:18;;;;;;;31.65;22.13;;;;;;;;;;1043754;28;20041;-67
2023/09/27 00:07:48;;;;;;;30.08;21.38;;;;;;;;;;1044475;28;20053;-68
2023/09/27 00:08:19;;;;;;;27.98;21.38;;;;;;;;;;1044803;28;20052;-67
2023/09/27 00:08:50;;;;;;;31.92;22.15;;;;;;;;;;1045116;28;20052;-67
2023/09/27 00:09:20;;;;;;;35.63;22.75;;;;;;;;;;1045386;28;20602;-68
2023/09/27 00:09:51;;;;;;;26.65;20.58;;;;;;;;;;1044833;28;20163;-67
2023/09/27 00:10:22;;;;;;;29.60;19.65;;;;;;;;;;1045250;28;20412;-68
2023/09/27 00:10:53;;;;;;;31.13;21.30;;;;;;;;;;1046253;28;20485;-68
2023/09/27 00:11:23;;;;;;;27.65;18.77;;;;;;;;;;1043375;28;20049;-68
2023/09/27 00:11:54;;;;;;;30.40;19.05;;;;;;;;;;1046230;28;20049;-67
2023/09/27 00:12:25;;;;;;;28.10;20.83;;;;;;;;;;1044434;28;20131;-68
2023/09/27 00:12:55;;;;;;;30.10;21.70;;;;;;;;;;1046711;28;20075;-68
2023/09/27 00:13:26;;;;;;;28.27;20.85;;;;;;;;;;1044297;28;20052;-67
2023/09/27 00:13:56;;;;;;;27.85;19.38;;;;;;;;;;1044367;28;20409;-67
2023/09/27 00:14:27;;;;;;;28.63;20.40;;;;;;;;;;1045062;28;20798;-68
2023/09/27 00:14:57;;;;;;;30.92;21.52;;;;;;;;;;1045943;28;20052;-67
2023/09/27 00:15:29;;;;;;;29.02;21.52;;;;;;;;;;1044262;28;20040;-67
2023/09/27 00:15:59;;;;;;;28.92;20.65;;;;;;;;;;1045434;28;20049;-67
2023/09/27 00:16:30;;;;;;;36.28;21.85;;;;;;;;;;1046427;28;20044;-67
2023/09/27 00:17:00;;;;;;;28.73;20.85;;;;;;;;;;1045345;28;20041;-67
2023/09/27 00:17:31;;;;;;;26.25;20.33;;;;;;;;;;1045654;28;20044;-67
2023/09/27 00:18:02;;;;;;;32.88;21.45;;;;;;;;;;1044004;28;20053;-68
2023/09/27 00:18:33;;;;;;;34.97;20.67;;;;;;;;;;1044391;28;20123;-67
2023/09/27 00:19:05;;;;;;;30.80;21.15;;;;;;;;;;1044534;28;20055;-68
2023/09/27 00:19:35;;;;;;;34.45;22.67;;;;;;;;;;1046400;28;20088;-67
2023/09/27 00:20:10;;;;;;;33.47;22.33;;;;;;;;;;1044872;28;20056;-68
2023/09/27 00:20:41;;;;;;;29.13;21.52;;;;;;;;;;1045107;28;20455;-68
2023/09/27 00:21:11;;;;;;;28.75;21.85;;;;;;;;;;1045315;28;20442;-68
2023/09/27 00:21:42;;;;;;;32.35;22.55;;;;;;;;;;1046627;28;20052;-68
2023/09/27 00:22:12;;;;;;;30.70;22.50;;;;;;;;;;1044159;28;20056;-67
2023/09/27 00:22:43;;;;;;;31.30;22.25;;;;;;;;;;1046476;28;20442;-68
2023/09/27 00:23:14;;;;;;;27.40;20.23;;;;;;;;;;1045572;28;20036;-67
2023/09/27 00:23:45;;;;;;;24.55;19.85;;;;;;;;;;1045260;28;20398;-67
2023/09/27 00:24:15;;;;;;;24.33;19.50;;;;;;;;;;1044941;28;20049;-68
2023/09/27 00:24:46;;;;;;;23.00;19.73;;;;;;;;;;1046493;28;20036;-68
2023/09/27 00:25:16;;;;;;;25.23;19.67;;;;;;;;;;1045622;28;20544;-68
2023/09/27 00:25:47;;;;;;;26.35;20.60;;;;;;;;;;1043945;28;22377;-68
2023/09/27 00:26:17;;;;;;;29.55;21.27;;;;;;;;;;1046265;28;20037;-67
2023/09/27 00:26:48;;;;;;;28.08;20.02;;;;;;;;;;1045034;28;20049;-68
2023/09/27 00:27:18;;;;;;;26.98;20.67;;;;;;;;;;1044567;28;20060;-67
2023/09/27 00:27:49;;;;;;;26.63;20.23;;;;;;;;;;1044225;28;20726;-67
2023/09/27 00:28:20;;;;;;;27.15;21.00;;;;;;;;;;1045142;28;20040;-68
2023/09/27 00:28:50;;;;;;;27.88;21.58;;;;;;;;;;1045255;28;20048;-68
2023/09/27 00:29:21;;;;;;;29.83;21.45;;;;;;;;;;1046275;28;20086;-68
2023/09/27 00:29:52;;;;;;;28.23;21.48;;;;;;;;;;1045928;28;20472;-69
2023/09/27 00:30:22;;;;;;;30.08;22.52;;;;;;;;;;1044808;28;20056;-68
2023/09/27 00:30:53;;;;;;;27.25;22.38;;;;;;;;;;1045052;28;20422;-67
2023/09/27 00:31:23;;;;;;;33.67;22.02;;;;;;;;;;1045959;28;20060;-67
2023/09/27 00:31:54;;;;;;;28.45;22.48;;;;;;;;;;1046316;28;20432;-68
2023/09/27 00:32:24;;;;;;;26.85;22.45;;;;;;;;;;1043192;28;20103;-68
2023/09/27 00:32:55;;;;;;;31.45;22.33;;;;;;;;;;1045165;28;20052;-68
2023/09/27 00:33:25;;;;;;;29.80;23.77;;;;;;;;;;1044650;28;20117;-68
2023/09/27 00:33:56;;;;;;;29.33;23.02;;;;;;;;;;1044926;28;20048;-67
2023/09/27 00:34:26;;;;;;;29.08;22.90;;;;;;;;;;1043567;28;20101;-68
2023/09/27 00:34:57;;;;;;;30.85;23.73;;;;;;;;;;1045545;28;20052;-68
2023/09/27 00:35:28;;;;;;;31.80;23.40;;;;;;;;;;1043221;28;20052;-67
2023/09/27 00:35:58;;;;;;;30.70;23.15;;;;;;;;;;1044132;28;20512;-68
2023/09/27 00:36:29;;;;;;;35.63;24.67;;;;;;;;;;1044465;28;20048;-68
2023/09/27 00:37:00;;;;;;;33.00;24.98;;;;;;;;;;1045949;28;21993;-68
2023/09/27 00:37:30;;;;;;;32.28;24.13;;;;;;;;;;1044747;28;20457;-68
2023/09/27 00:38:02;;;;;;;32.47;24.67;;;;;;;;;;1046251;28;20087;-68
2023/09/27 00:38:32;;;;;;;35.15;25.17;;;;;;;;;;1044282;28;20091;-68
2023/09/27 00:39:03;;;;;;;34.92;25.20;;;;;;;;;;1045963;28;20052;-68
2023/09/27 00:39:36;;;;;;;35.28;24.88;;;;;;;;;;1041104;28;20063;-68
2023/09/27 00:40:10;;;;;;;34.10;24.27;;;;;;;;;;1040871;28;20095;-67
2023/09/27 00:40:47;;;;;;;36.35;24.73;;;;;;;;;;1041316;28;20044;-68
2023/09/27 00:41:18;;;;;;;33.30;23.63;;;;;;;;;;1040632;28;20045;-68
2023/09/27 00:41:48;;;;;;;34.42;24.25;;;;;;;;;;1041761;28;20045;-68
2023/09/27 00:42:19;;;;;;;36.53;25.65;;;;;;;;;;1042131;28;20056;-68
2023/09/27 00:42:49;;;;;;;39.33;25.40;;;;;;;;;;1045975;28;20123;-68
2023/09/27 00:43:30;;;;;;;36.67;25.73;;;;;;;;;;1045481;28;20056;-67
2023/09/27 00:44:01;;;;;;;33.92;24.55;;;;;;;;;;1043488;28;20048;-68
2023/09/27 00:44:31;;;;;;;34.65;24.15;;;;;;;;;;1046215;28;20078;-68
2023/09/27 00:45:03;;;;;;;33.50;22.88;;;;;;;;;;1045860;28;20680;-68
2023/09/27 00:45:34;;;;;;;33.42;22.80;;;;;;;;;;1045312;28;20139;-67
2023/09/27 00:46:05;;;;;;;33.13;23.55;;;;;;;;;;1043102;28;20056;-68
2023/09/27 00:46:36;;;;;;;34.97;26.17;;;;;;;;;;1046061;28;20155;-68
2023/09/27 00:47:07;;;;;;;33.50;22.83;;;;;;;;;;1044510;28;20048;-68
2023/09/27 00:47:38;;;;;;;29.42;22.10;;;;;;;;;;1045969;28;20051;-67
2023/09/27 00:48:08;;;;;;;29.95;21.20;;;;;;;;;;1045121;28;20619;-68
2023/09/27 00:48:39;;;;;;;26.23;21.02;;;;;;;;;;1046267;28;20045;-68
2023/09/27 00:49:09;;;;;;;29.98;21.85;;;;;;;;;;1046480;28;20060;-68
2023/09/27 00:49:41;;;;;;;29.33;21.83;;;;;;;;;;1044682;28;20587;-68
2023/09/27 00:50:12;;;;;;;34.22;22.13;;;;;;;;;;1043702;28;20053;-68
2023/09/27 00:50:43;;;;;;;33.55;23.60;;;;;;;;;;1045004;28;20136;-67
2023/09/27 00:51:14;;;;;;;32.95;24.73;;;;;;;;;;1044966;28;20043;-68
2023/09/27 00:51:44;;;;;;;29.95;22.83;;;;;;;;;;1045757;28;20048;-67
2023/09/27 00:52:15;;;;;;;30.42;22.83;;;;;;;;;;1045825;28;20045;-68
2023/09/27 00:52:47;;;;;;;35.22;23.83;;;;;;;;;;1044833;28;20803;-67
2023/09/27 00:53:19;;;;;;;31.67;23.45;;;;;;;;;;1044109;28;20055;-68
2023/09/27 00:53:51;;;;;;;37.97;24.85;;;;;;;;;;1045563;28;20139;-68
2023/09/27 00:54:22;;;;;;;35.63;25.27;;;;;;;;;;1046677;28;20040;-67
2023/09/27 00:54:53;;;;;;;37.38;22.88;;;;;;;;;;1043876;28;20053;-68
2023/09/27 00:55:23;;;;;;;30.77;22.92;;;;;;;;;;1045864;28;20102;-68
2023/09/27 00:55:55;;;;;;;32.92;25.42;;;;;;;;;;1045509;28;20037;-67
2023/09/27 00:56:26;;;;;;;30.85;23.75;;;;;;;;;;1046383;28;20469;-68
2023/09/27 00:56:57;;;;;;;32.05;23.65;;;;;;;;;;1044479;28;20453;-68
2023/09/27 00:57:28;;;;;;;34.28;24.20;;;;;;;;;;1045085;28;20052;-68
2023/09/27 00:57:59;;;;;;;32.90;23.38;;;;;;;;;;1046320;28;20037;-68
2023/09/27 00:58:32;;;;;;;37.25;25.58;;;;;;;;;;1044777;28;20114;-67
2023/09/27 00:59:04;;;;;;;36.38;25.05;;;;;;;;;;1045866;28;20068;-67
2023/09/27 00:59:36;;;;;;;36.55;23.63;;;;;;;;;;1041297;28;20108;-68
2023/09/27 01:00:10;;;;;;;35.55;24.17;;;;;;;;;;1041418;28;20041;-68
2023/09/27 01:00:40;;;;;;;33.38;24.27;;;;;;;;;;1043710;28;20041;-68
2023/09/27 01:01:12;;;;;;;36.70;25.63;;;;;;;;;;1046099;28;20048;-67
2023/09/27 01:01:44;;;;;;;36.63;26.65;;;;;;;;;;1045359;28;20792;-68
2023/09/27 01:02:16;;;;;;;39.70;26.15;;;;;;;;;;1044726;28;20510;-68
2023/09/27 01:02:47;;;;;;;40.05;27.25;;;;;;;;;;1044297;28;20101;-67
2023/09/27 01:03:19;;;;;;;39.83;26.73;;;;;;;;;;1041338;28;20098;-68
2023/09/27 01:03:51;;;;;;;38.33;27.77;;;;;;;;;;1039932;28;20049;-68
2023/09/27 01:04:22;;;;;;;40.80;27.08;;;;;;;;;;1040606;28;20190;-67
2023/09/27 01:04:53;;;;;;;39.83;27.02;;;;;;;;;;1041421;28;20092;-68
2023/09/27 01:05:23;;;;;;;40.55;27.88;;;;;;;;;;1045384;28;20469;-67
2023/09/27 01:05:54;;;;;;;43.75;28.60;;;;;;;;;;1045666;28;20047;-67
2023/09/27 01:06:25;;;;;;;38.75;28.77;;;;;;;;;;1044786;28;20064;-68
2023/09/27 01:06:56;;;;;;;40.58;28.13;;;;;;;;;;1044920;28;20146;-68
2023/09/27 01:07:26;;;;;;;38.15;27.85;;;;;;;;;;1042359;28;20048;-68
2023/09/27 01:07:57;;;;;;;44.13;28.35;;;;;;;;;;1041419;28;20045;-68
2023/09/27 01:08:27;;;;;;;39.30;27.88;;;;;;;;;;1041004;28;20045;-68
2023/09/27 01:08:58;;;;;;;40.83;28.45;;;;;;;;;;1042397;28;20060;-68
2023/09/27 01:09:31;;;;;;;43.50;29.83;;;;;;;;;;1040927;28;20055;-68
2023/09/27 01:10:02;;;;;;;45.30;30.10;;;;;;;;;;1041727;28;20102;-68
2023/09/27 01:10:34;;;;;;;44.78;29.65;;;;;;;;;;1040841;28;20155;-68
2023/09/27 01:11:05;;;;;;;44.08;28.33;;;;;;;;;;1037589;28;20057;-68
2023/09/27 01:11:36;;;;;;;48.97;30.63;;;;;;;;;;1037147;28;20057;-68
2023/09/27 01:12:07;;;;;;;47.28;30.98;;;;;;;;;;1035314;28;20195;-68
2023/09/27 01:12:38;;;;;;;48.65;32.53;;;;;;;;;;1033719;28;20480;-69
2023/09/27 01:13:08;;;;;;;46.90;31.30;;;;;;;;;;1040770;28;20071;-68
2023/09/27 01:13:39;;;;;;;49.30;31.65;;;;;;;;;;1041169;28;20841;-68
2023/09/27 01:14:10;;;;;;;44.60;29.40;;;;;;;;;;1040781;28;20179;-68
2023/09/27 01:14:41;;;;;;;45.85;30.75;;;;;;;;;;1041979;28;20083;-68
2023/09/27 01:15:11;;;;;;;40.38;29.17;;;;;;;;;;1036398;28;20060;-68
2023/09/27 01:15:42;;;;;;;43.72;29.83;;;;;;;;;;1041751;28;20504;-68
2023/09/27 01:16:12;;;;;;;45.42;29.52;;;;;;;;;;1037931;28;20060;-67
2023/09/27 01:16:43;;;;;;;46.50;30.70;;;;;;;;;;1042051;28;20410;-68
2023/09/27 01:17:13;;;;;;;47.20;28.83;;;;;;;;;;1038452;28;20758;-68
2023/09/27 01:17:57;;;;;;;42.03;29.70;;;;;;;;;;1037679;28;20056;-68
2023/09/27 01:18:28;;;;;;;43.47;29.98;;;;;;;;;;1040272;28;20052;-68
2023/09/27 01:19:02;;;;;;;43.00;28.48;;;;;;;;;;1041245;28;20045;-68
2023/09/27 01:19:34;;;;;;;38.08;26.75;;;;;;;;;;1045172;28;20166;-67
2023/09/27 01:20:12;;;;;;;41.45;27.70;;;;;;;;;;1045861;28;20053;-68
2023/09/27 01:20:42;;;;;;;37.60;27.75;;;;;;;;;;1045087;28;20048;-67
2023/09/27 01:21:18;;;;;;;43.95;27.88;;;;;;;;;;1043365;28;20049;-67
2023/09/27 01:21:49;;;;;;;44.60;27.27;;;;;;;;;;1043338;28;20044;-68
2023/09/27 01:22:20;;;;;;;40.58;26.60;;;;;;;;;;1045160;28;20063;-69
2023/09/27 01:23:05;;;;;;;42.70;26.08;;;;;;;;;;1044887;28;20057;-68
2023/09/27 01:23:38;;;;;;;35.70;24.77;;;;;;;;;;1045017;28;20063;-67
2023/09/27 01:24:09;;;;;;;38.75;25.48;;;;;;;;;;1045708;28;20055;-68
2023/09/27 01:24:41;;;;;;;32.78;24.63;;;;;;;;;;1045946;28;20051;-68
2023/09/27 01:25:15;;;;;;;38.60;25.88;;;;;;;;;;1044621;28;20989;-68
2023/09/27 01:25:46;;;;;;;36.20;25.10;;;;;;;;;;1044953;28;20052;-68
2023/09/27 01:26:18;;;;;;;37.47;25.83;;;;;;;;;;1044618;28;20052;-68
2023/09/27 01:26:48;;;;;;;37.88;25.58;;;;;;;;;;1045729;28;20139;-68
2023/09/27 01:27:20;;;;;;;32.88;25.75;;;;;;;;;;1043756;28;20386;-68
2023/09/27 01:27:51;;;;;;;43.72;25.85;;;;;;;;;;1045936;28;20041;-68
2023/09/27 01:28:22;;;;;;;36.53;25.83;;;;;;;;;;1045058;28;20059;-68
2023/09/27 01:28:52;;;;;;;35.13;25.02;;;;;;;;;;1046110;28;20074;-67
2023/09/27 01:29:23;;;;;;;31.95;25.42;;;;;;;;;;1044281;28;20643;-68
2023/09/27 01:29:53;;;;;;;37.20;25.25;;;;;;;;;;1045680;28;20461;-68
2023/09/27 01:30:25;;;;;;;36.78;25.92;;;;;;;;;;1044701;28;20053;-68
2023/09/27 01:30:55;;;;;;;36.47;25.52;;;;;;;;;;1045243;28;20079;-68
2023/09/27 01:31:26;;;;;;;40.45;26.08;;;;;;;;;;1045522;28;20071;-68
2023/09/27 01:31:57;;;;;;;35.63;25.58;;;;;;;;;;1046221;28;20491;-68
2023/09/27 01:32:27;;;;;;;39.40;24.60;;;;;;;;;;1043661;28;20045;-68
2023/09/27 01:33:04;;;;;;;35.58;25.27;;;;;;;;;;1045896;28;20631;-67
2023/09/27 01:33:35;;;;;;;37.05;25.42;;;;;;;;;;1045587;28;20182;-67
2023/09/27 01:34:05;;;;;;;36.63;24.85;;;;;;;;;;1045073;28;20052;-67
2023/09/27 01:34:36;;;;;;;36.15;24.08;;;;;;;;;;1045479;28;20056;-68
2023/09/27 01:35:07;;;;;;;35.60;25.63;;;;;;;;;;1045160;28;20109;-68
2023/09/27 01:35:39;;;;;;;38.17;24.65;;;;;;;;;;1045959;28;20048;-68
2023/09/27 01:36:11;;;;;;;33.35;24.92;;;;;;;;;;1044613;28;20059;-68
2023/09/27 01:36:42;;;;;;;32.53;24.23;;;;;;;;;;1045846;28;20052;-68
2023/09/27 01:37:12;;;;;;;35.17;25.73;;;;;;;;;;1045702;28;20044;-68
2023/09/27 01:37:43;;;;;;;34.75;24.73;;;;;;;;;;1045306;28;20404;-67
2023/09/27 01:38:13;;;;;;;33.05;25.02;;;;;;;;;;1045081;28;20051;-67
2023/09/27 01:38:44;;;;;;;33.38;25.17;;;;;;;;;;1042734;28;20714;-68
2023/09/27 01:39:14;;;;;;;37.00;24.85;;;;;;;;;;1045420;28;20443;-68
2023/09/27 01:39:45;;;;;;;33.78;25.05;;;;;;;;;;1045657;28;20044;-68
2023/09/27 01:40:18;;;;;;;37.10;24.15;;;;;;;;;;1045765;28;20051;-67
2023/09/27 01:40:49;;;;;;;35.50;25.30;;;;;;;;;;1045049;28;20048;-68
2023/09/27 01:41:19;;;;;;;33.85;24.20;;;;;;;;;;1045443;28;20060;-68
2023/09/27 01:41:50;;;;;;;35.15;24.83;;;;;;;;;;1044698;28;20045;-68
2023/09/27 01:42:20;;;;;;;31.17;22.20;;;;;;;;;;1045935;28;20048;-68
2023/09/27 01:42:50;;;;;;;31.48;24.33;;;;;;;;;;1045502;28;20041;-68
2023/09/27 01:43:21;;;;;;;31.02;22.55;;;;;;;;;;1046381;28;20049;-68
2023/09/27 01:43:51;;;;;;;36.53;25.30;;;;;;;;;;1044127;28;20052;-68
2023/09/27 01:44:22;;;;;;;29.42;23.60;;;;;;;;;;1045929;28;20037;-68
2023/09/27 01:44:53;;;;;;;34.40;23.17;;;;;;;;;;1044486;28;20540;-68
2023/09/27 01:45:23;;;;;;;34.25;23.80;;;;;;;;;;1044454;28;20056;-68
2023/09/27 01:45:54;;;;;;;34.50;24.15;;;;;;;;;;1045520;28;20540;-67
2023/09/27 01:46:24;;;;;;;30.25;23.33;;;;;;;;;;1046073;28;20844;-67
2023/09/27 01:46:55;;;;;;;32.67;24.02;;;;;;;;;;1043882;28;20681;-68
2023/09/27 01:47:25;;;;;;;32.15;23.92;;;;;;;;;;1044314;28;20052;-68
2023/09/27 01:47:59;;;;;;;38.92;24.98;;;;;;;;;;1045627;28;20041;-68
2023/09/27 01:48:30;;;;;;;29.63;24.48;;;;;;;;;;1044835;28;20049;-68
2023/09/27 01:49:00;;;;;;;34.17;23.15;;;;;;;;;;1044899;28;20044;-68
2023/09/27 01:49:31;;;;;;;32.03;24.45;;;;;;;;;;1044378;28;20052;-68
2023/09/27 01:50:02;;;;;;;40.28;24.35;;;;;;;;;;1045338;28;20048;-68
2023/09/27 01:50:34;;;;;;;32.83;24.05;;;;;;;;;;1045033;28;20147;-68
2023/09/27 01:51:05;;;;;;;29.25;23.25;;;;;;;;;;1044336;28;20060;-68
2023/09/27 01:51:36;;;;;;;32.17;23.08;;;;;;;;;;1045269;28;20086;-68
2023/09/27 01:52:06;;;;;;;33.00;22.50;;;;;;;;;;1044646;28;20052;-67
2023/09/27 01:52:37;;;;;;;31.83;24.20;;;;;;;;;;1046532;28;20048;-68
2023/09/27 01:53:07;;;;;;;29.70;23.30;;;;;;;;;;1043659;28;20529;-68
2023/09/27 01:53:38;;;;;;;29.80;23.25;;;;;;;;;;1045737;28;20053;-68
2023/09/27 01:54:08;;;;;;;28.27;21.25;;;;;;;;;;1044498;28;20059;-67
2023/09/27 01:54:39;;;;;;;30.98;24.33;;;;;;;;;;1044658;28;20143;-67
2023/09/27 01:55:09;;;;;;;27.48;22.02;;;;;;;;;;1045272;28;20052;-67
2023/09/27 01:55:40;;;;;;;30.65;22.55;;;;;;;;;;1044958;28;20056;-68
2023/09/27 01:56:10;;;;;;;29.63;21.83;;;;;;;;;;1045731;28;20048;-67
2023/09/27 01:56:41;;;;;;;28.80;22.35;;;;;;;;;;1045478;28;20417;-68
2023/09/27 01:57:11;;;;;;;26.25;21.90;;;;;;;;;;1044983;28;20231;-67
2023/09/27 01:57:45;;;;;;;30.38;22.60;;;;;;;;;;1043430;28;20660;-67
2023/09/27 01:58:15;;;;;;;38.13;23.95;;;;;;;;;;1044871;28;20050;-68
2023/09/27 01:58:46;;;;;;;30.58;23.13;;;;;;;;;;1045431;28;20051;-67
2023/09/27 01:59:16;;;;;;;33.05;23.20;;;;;;;;;;1045573;28;20477;-68
2023/09/27 01:59:47;;;;;;;31.48;24.15;;;;;;;;;;1045245;28;20049;-68
2023/09/27 02:00:18;;;;;;;32.60;23.02;;;;;;;;;;1044139;28;20048;-68
2023/09/27 02:00:49;;;;;;;36.25;23.63;;;;;;;;;;1045493;28;20044;-68
2023/09/27 02:01:20;;;;;;;31.77;23.52;;;;;;;;;;1043927;28;20049;-68
2023/09/27 02:01:50;;;;;;;29.30;22.63;;;;;;;;;;1043620;28;20049;-68
2023/09/27 02:02:21;;;;;;;29.08;22.33;;;;;;;;;;1045843;28;20059;-68
2023/09/27 02:02:57;;;;;;;30.85;23.58;;;;;;;;;;1045318;28;20091;-67
2023/09/27 02:03:28;;;;;;;34.95;22.73;;;;;;;;;;1044397;28;20087;-67
2023/09/27 02:03:58;;;;;;;30.02;22.60;;;;;;;;;;1045554;28;20052;-68
2023/09/27 02:04:29;;;;;;;40.00;23.00;;;;;;;;;;1044557;28;20048;-67
2023/09/27 02:05:00;;;;;;;28.23;22.58;;;;;;;;;;1045515;28;20378;-68
2023/09/27 02:05:31;;;;;;;31.77;22.40;;;;;;;;;;1044697;28;20102;-67
2023/09/27 02:06:01;;;;;;;28.70;22.92;;;;;;;;;;1045536;28;20044;-67
2023/09/27 02:06:32;;;;;;;29.73;22.25;;;;;;;;;;1043812;28;20410;-67
2023/09/27 02:07:02;;;;;;;29.23;21.98;;;;;;;;;;1046063;28;20048;-68
2023/09/27 02:07:33;;;;;;;34.92;22.35;;;;;;;;;;1044589;28;20064;-67
2023/09/27 02:08:03;;;;;;;29.88;22.50;;;;;;;;;;1045753;28;20110;-68
2023/09/27 02:08:34;;;;;;;34.15;22.73;;;;;;;;;;1044549;28;20058;-68
2023/09/27 02:09:05;;;;;;;28.95;22.33;;;;;;;;;;1045235;28;20098;-68
2023/09/27 02:09:35;;;;;;;30.45;22.27;;;;;;;;;;1045259;28;20091;-68
2023/09/27 02:10:07;;;;;;;30.95;22.55;;;;;;;;;;1044896;28;20063;-68
2023/09/27 02:10:37;;;;;;;29.80;22.63;;;;;;;;;;1043964;28;20128;-68
2023/09/27 02:11:08;;;;;;;31.85;22.42;;;;;;;;;;1045240;28;20053;-67
2023/09/27 02:11:38;;;;;;;28.67;22.10;;;;;;;;;;1043980;28;20064;-68
2023/09/27 02:12:09;;;;;;;32.22;22.35;;;;;;;;;;1045113;28;20053;-67
2023/09/27 02:12:40;;;;;;;29.02;22.50;;;;;;;;;;1044983;28;20048;-67
2023/09/27 02:13:10;;;;;;;32.72;22.05;;;;;;;;;;1044359;28;20143;-68
2023/09/27 02:13:41;;;;;;;26.73;20.65;;;;;;;;;;1045460;28;20531;-68
2023/09/27 02:14:11;;;;;;;33.83;21.45;;;;;;;;;;1043858;28;20095;-67
2023/09/27 02:14:42;;;;;;;32.40;22.50;;;;;;;;;;1046224;28;20059;-67
2023/09/27 02:15:14;;;;;;;32.90;21.30;;;;;;;;;;1044598;28;20155;-68
2023/09/27 02:15:45;;;;;;;29.23;22.05;;;;;;;;;;1046052;28;20386;-68
2023/09/27 02:16:15;;;;;;;27.50;21.48;;;;;;;;;;1042749;28;20472;-68
2023/09/27 02:16:47;;;;;;;25.77;21.52;;;;;;;;;;1046504;28;20078;-67
2023/09/27 02:17:18;;;;;;;28.48;21.25;;;;;;;;;;1043676;28;20083;-67
2023/09/27 02:17:48;;;;;;;27.58;22.52;;;;;;;;;;1046132;28;20049;-68
2023/09/27 02:18:19;;;;;;;31.40;22.42;;;;;;;;;;1042942;28;20145;-67
2023/09/27 02:18:49;;;;;;;32.35;21.83;;;;;;;;;;1044821;28;20052;-68
2023/09/27 02:19:20;;;;;;;34.30;23.33;;;;;;;;;;1045273;28;20052;-68
2023/09/27 02:19:51;;;;;;;31.80;23.55;;;;;;;;;;1045887;28;20446;-68
2023/09/27 02:20:23;;;;;;;30.38;23.60;;;;;;;;;;1044281;28;20045;-67
2023/09/27 02:20:53;;;;;;;29.33;22.83;;;;;;;;;;1044833;28;20083;-67
2023/09/27 02:21:24;;;;;;;35.15;22.23;;;;;;;;;;1044182;28;20052;-67
2023/09/27 02:21:54;;;;;;;29.77;22.90;;;;;;;;;;1044083;28;20068;-68
2023/09/27 02:22:25;;;;;;;33.17;22.85;;;;;;;;;;1044849;28;20819;-68
2023/09/27 02:22:55;;;;;;;29.77;21.70;;;;;;;;;;1045959;28;20048;-68
2023/09/27 02:23:27;;;;;;;32.35;23.13;;;;;;;;;;1043758;28;20448;-67
2023/09/27 02:23:57;;;;;;;33.63;23.05;;;;;;;;;;1045551;28;20052;-67
2023/09/27 02:24:28;;;;;;;31.80;22.20;;;;;;;;;;1043447;28;21357;-68
2023/09/27 02:24:59;;;;;;;29.58;22.63;;;;;;;;;;1045433;28;20060;-68
2023/09/27 02:25:30;;;;;;;31.90;22.20;;;;;;;;;;1044995;28;20048;-68
2023/09/27 02:26:02;;;;;;;31.88;22.33;;;;;;;;;;1045133;28;20037;-67
2023/09/27 02:26:33;;;;;;;27.85;22.08;;;;;;;;;;1043696;28;20850;-68
2023/09/27 02:27:03;;;;;;;34.33;22.23;;;;;;;;;;1043306;28;20083;-68
2023/09/27 02:27:35;;;;;;;32.55;23.23;;;;;;;;;;1043967;28;20056;-68
2023/09/27 02:28:06;;;;;;;31.92;22.98;;;;;;;;;;1043867;28;20060;-68
2023/09/27 02:28:36;;;;;;;29.15;22.42;;;;;;;;;;1045414;28;20560;-67
2023/09/27 02:29:07;;;;;;;32.03;22.60;;;;;;;;;;1044202;28;20728;-68
2023/09/27 02:29:38;;;;;;;30.98;23.25;;;;;;;;;;1044661;28;20119;-68
2023/09/27 02:30:14;;;;;;;29.40;22.40;;;;;;;;;;1044364;28;20052;-66
2023/09/27 02:30:44;;;;;;;30.08;22.25;;;;;;;;;;1046202;28;20086;-68
2023/09/27 02:31:15;;;;;;;29.17;23.15;;;;;;;;;;1043472;28;20078;-68
2023/09/27 02:31:45;;;;;;;32.22;22.00;;;;;;;;;;1044612;28;20044;-68
2023/09/27 02:32:17;;;;;;;29.95;20.48;;;;;;;;;;1045121;28;20110;-67
2023/09/27 02:32:48;;;;;;;31.17;23.05;;;;;;;;;;1046045;28;20048;-67
2023/09/27 02:33:18;;;;;;;30.52;23.13;;;;;;;;;;1044853;28;20058;-68
2023/09/27 02:33:49;;;;;;;30.67;21.95;;;;;;;;;;1045435;28;20059;-68
2023/09/27 02:34:19;;;;;;;29.40;22.73;;;;;;;;;;1043250;28;20442;-68
2023/09/27 02:34:51;;;;;;;37.22;23.15;;;;;;;;;;1044554;28;20048;-68
2023/09/27 02:35:21;;;;;;;32.67;22.38;;;;;;;;;;1044219;28;20075;-68
2023/09/27 02:35:52;;;;;;;29.92;23.08;;;;;;;;;;1046226;28;20164;-68
2023/09/27 02:36:23;;;;;;;28.02;22.90;;;;;;;;;;1044116;28;20048;-67
2023/09/27 02:36:53;;;;;;;29.90;23.05;;;;;;;;;;1045313;28;20041;-67
2023/09/27 02:37:24;;;;;;;28.48;22.00;;;;;;;;;;1044565;28;20048;-67
2023/09/27 02:37:54;;;;;;;29.33;22.67;;;;;;;;;;1044109;28;20071;-67
2023/09/27 02:38:25;;;;;;;33.80;22.40;;;;;;;;;;1045557;28;20650;-68
2023/09/27 02:38:56;;;;;;;31.40;22.50;;;;;;;;;;1043734;28;20048;-68
2023/09/27 02:39:28;;;;;;;32.92;23.30;;;;;;;;;;1045234;28;20421;-68
2023/09/27 02:39:59;;;;;;;30.33;22.98;;;;;;;;;;1044119;28;20049;-68
2023/09/27 02:40:29;;;;;;;32.17;23.20;;;;;;;;;;1044406;28;20049;-68
2023/09/27 02:41:00;;;;;;;29.00;22.85;;;;;;;;;;1044700;28;20502;-68
2023/09/27 02:41:30;;;;;;;36.90;24.00;;;;;;;;;;1045317;28;20447;-68
2023/09/27 02:42:03;;;;;;;32.47;22.45;;;;;;;;;;1044333;28;20459;-68
2023/09/27 02:42:34;;;;;;;29.88;22.95;;;;;;;;;;1045770;28;20670;-68
2023/09/27 02:43:05;;;;;;;31.15;23.45;;;;;;;;;;1044687;28;20513;-68
2023/09/27 02:43:36;;;;;;;28.52;22.98;;;;;;;;;;1046051;28;20060;-68
2023/09/27 02:44:06;;;;;;;32.88;22.80;;;;;;;;;;1043370;28;20059;-68
2023/09/27 02:44:37;;;;;;;32.42;23.23;;;;;;;;;;1045456;28;20727;-67
2023/09/27 02:45:09;;;;;;;30.75;22.95;;;;;;;;;;1045011;28;20052;-68
2023/09/27 02:45:39;;;;;;;32.22;22.80;;;;;;;;;;1046361;28;20048;-67
2023/09/27 02:46:10;;;;;;;34.10;23.50;;;;;;;;;;1044676;28;20129;-68
2023/09/27 02:46:40;;;;;;;36.13;23.00;;;;;;;;;;1044221;28;20053;-68
2023/09/27 02:47:11;;;;;;;31.60;21.08;;;;;;;;;;1045441;28;20060;-67
2023/09/27 02:47:46;;;;;;;30.35;22.13;;;;;;;;;;1045601;28;20052;-68
2023/09/27 02:48:16;;;;;;;29.35;22.00;;;;;;;;;;1045423;28;20036;-68
2023/09/27 02:48:47;;;;;;;27.60;22.40;;;;;;;;;;1045080;28;20049;-68
2023/09/27 02:49:19;;;;;;;32.15;23.08;;;;;;;;;;1044671;28;20263;-67
2023/09/27 02:49:50;;;;;;;31.65;22.15;;;;;;;;;;1045454;28;20698;-68
2023/09/27 02:50:20;;;;;;;31.20;23.10;;;;;;;;;;1043741;28;20426;-67
2023/09/27 02:50:55;;;;;;;32.05;22.33;;;;;;;;;;1045422;28;20060;-68
2023/09/27 02:51:25;;;;;;;28.35;21.52;;;;;;;;;;1042413;28;20057;-68
2023/09/27 02:51:56;;;;;;;31.67;22.15;;;;;;;;;;1045343;28;20052;-68
2023/09/27 02:52:26;;;;;;;28.83;22.70;;;;;;;;;;1044554;28;20102;-68
2023/09/27 02:52:57;;;;;;;32.42;22.58;;;;;;;;;;1045348;28;20502;-67
2023/09/27 02:53:27;;;;;;;31.42;22.35;;;;;;;;;;1045004;28;20391;-68
2023/09/27 02:53:58;;;;;;;35.13;23.50;;;;;;;;;;1044647;28;20070;-68
2023/09/27 02:54:28;;;;;;;28.38;22.50;;;;;;;;;;1044899;28;20139;-68
2023/09/27 02:54:59;;;;;;;34.50;24.63;;;;;;;;;;1044805;28;20043;-68
2023/09/27 02:55:30;;;;;;;31.02;22.67;;;;;;;;;;1044423;28;20040;-68
2023/09/27 02:56:04;;;;;;;33.97;24.83;;;;;;;;;;1045824;28;20389;-68
2023/09/27 02:56:36;;;;;;;32.95;24.38;;;;;;;;;;1044911;28;20647;-68
2023/09/27 02:57:07;;;;;;;35.15;24.20;;;;;;;;;;1044717;28;20057;-67
2023/09/27 02:57:38;;;;;;;35.42;25.35;;;;;;;;;;1044131;28;20385;-67
2023/09/27 02:58:08;;;;;;;33.33;24.10;;;;;;;;;;1045113;28;20048;-68
2023/09/27 02:58:39;;;;;;;37.08;23.25;;;;;;;;;;1045308;28;20056;-67
2023/09/27 02:59:13;;;;;;;31.23;24.13;;;;;;;;;;1045676;28;20428;-68
2023/09/27 02:59:44;;;;;;;30.52;22.48;;;;;;;;;;1046136;28;20059;-68
2023/09/27 03:00:14;;;;;;;34.05;23.50;;;;;;;;;;1045404;28;20059;-68
2023/09/27 03:00:45;;;;;;;34.70;24.45;;;;;;;;;;1043327;28;20049;-68
2023/09/27 03:01:15;;;;;;;32.03;24.08;;;;;;;;;;1045162;28;20055;-67